sensor_id;sensor_type;location;lat;lon;timestamp;pressure;altitude;pressure_sealevel;temperature;humidity
22550;BME280;11441;57.164;-2.120;2023-02-26T00:01:36;102390.88;;;4.52;100.00
22550;BME280;11441;57.164;-2.120;2023-02-26T00:04:04;102395.78;;;4.40;100.00
22550;BME280;11441;57.164;-2.120;2023-02-26T00:06:33;102399.63;;;4.59;100.00
22550;BME280;11441;57.164;-2.120;2023-02-26T00:09:02;102394.41;;;4.47;100.00
22550;BME280;11441;57.164;-2.120;2023-02-26T00:11:30;102398.25;;;4.51;100.00
22550;BME280;11441;57.164;-2.120;2023-02-26T00:13:58;102403.44;;;4.53;100.00
22550;BME280;11441;57.164;-2.120;2023-02-26T00:16:29;102405.59;;;4.46;100.00
22550;BME280;11441;57.164;-2.120;2023-02-26T00:18:59;102404.53;;;4.47;100.00
22550;BME280;11441;57.164;-2.120;2023-02-26T00:21:27;102401.25;;;4.50;100.00
22550;BME280;11441;57.164;-2.120;2023-02-26T00:23:54;102401.81;;;4.52;100.00
22550;BME280;11441;57.164;-2.120;2023-02-26T00:26:22;102419.28;;;4.41;100.00
22550;BME280;11441;57.164;-2.120;2023-02-26T00:28:51;102417.63;;;4.50;100.00
22550;BME280;11441;57.164;-2.120;2023-02-26T00:31:18;102418.69;;;4.39;100.00
22550;BME280;11441;57.164;-2.120;2023-02-26T00:33:51;102416.25;;;4.42;100.00
22550;BME280;11441;57.164;-2.120;2023-02-26T00:36:33;102416.53;;;4.41;100.00
22550;BME280;11441;57.164;-2.120;2023-02-26T00:41:59;102421.72;;;4.52;100.00
22550;BME280;11441;57.164;-2.120;2023-02-26T00:44:26;102422.56;;;4.53;100.00
22550;BME280;11441;57.164;-2.120;2023-02-26T00:49:53;102441.63;;;4.38;100.00
22550;BME280;11441;57.164;-2.120;2023-02-26T00:52:31;102441.63;;;4.32;100.00
22550;BME280;11441;57.164;-2.120;2023-02-26T00:55:02;102436.44;;;4.41;100.00
22550;BME280;11441;57.164;-2.120;2023-02-26T00:57:28;102443.78;;;4.25;100.00
22550;BME280;11441;57.164;-2.120;2023-02-26T00:59:55;102435.09;;;4.49;100.00
22550;BME280;11441;57.164;-2.120;2023-02-26T01:02:23;102441.63;;;4.32;100.00
22550;BME280;11441;57.164;-2.120;2023-02-26T01:04:50;102450.63;;;4.33;100.00
22550;BME280;11441;57.164;-2.120;2023-02-26T01:07:19;102458.56;;;4.45;100.00
22550;BME280;11441;57.164;-2.120;2023-02-26T01:09:48;102456.91;;;4.44;100.00
22550;BME280;11441;57.164;-2.120;2023-02-26T01:12:15;102473.03;;;4.56;100.00
22550;BME280;11441;57.164;-2.120;2023-02-26T01:14:43;102470.03;;;4.57;100.00
22550;BME280;11441;57.164;-2.120;2023-02-26T01:19:57;102472.19;;;4.45;100.00
22550;BME280;11441;57.164;-2.120;2023-02-26T01:22:41;102470.56;;;4.54;100.00
22550;BME280;11441;57.164;-2.120;2023-02-26T01:25:36;102477.13;;;4.48;100.00
22550;BME280;11441;57.164;-2.120;2023-02-26T01:28:00;102464.59;;;4.67;100.00
22550;BME280;11441;57.164;-2.120;2023-02-26T01:30:27;102474.97;;;4.70;100.00
22550;BME280;11441;57.164;-2.120;2023-02-26T01:32:57;102477.13;;;4.53;100.00
22550;BME280;11441;57.164;-2.120;2023-02-26T01:35:39;102482.59;;;4.63;100.00
22550;BME280;11441;57.164;-2.120;2023-02-26T01:38:21;102468.38;;;4.46;100.00
22550;BME280;11441;57.164;-2.120;2023-02-26T01:41:16;102473.00;;;4.45;100.00
22550;BME280;11441;57.164;-2.120;2023-02-26T01:49:34;102476.84;;;4.49;100.00
22550;BME280;11441;57.164;-2.120;2023-02-26T01:52:04;102478.75;;;4.59;100.00
22550;BME280;11441;57.164;-2.120;2023-02-26T01:54:35;102480.41;;;4.65;100.00
22550;BME280;11441;57.164;-2.120;2023-02-26T01:57:13;102480.94;;;4.57;100.00
22550;BME280;11441;57.164;-2.120;2023-02-26T01:59:44;102494.88;;;4.66;100.00
22550;BME280;11441;57.164;-2.120;2023-02-26T02:02:16;102495.94;;;4.65;100.00
22550;BME280;11441;57.164;-2.120;2023-02-26T02:04:45;102491.88;;;4.57;100.00
22550;BME280;11441;57.164;-2.120;2023-02-26T02:07:13;102499.22;;;4.51;100.00
22550;BME280;11441;57.164;-2.120;2023-02-26T02:09:40;102493.78;;;4.62;100.00
22550;BME280;11441;57.164;-2.120;2023-02-26T02:18:23;102497.59;;;4.56;100.00
22550;BME280;11441;57.164;-2.120;2023-02-26T02:37:53;102515.63;;;4.67;100.00
22550;BME280;11441;57.164;-2.120;2023-02-26T02:40:27;102512.06;;;4.71;100.00
22550;BME280;11441;57.164;-2.120;2023-02-26T02:43:15;102518.91;;;4.69;100.00
22550;BME280;11441;57.164;-2.120;2023-02-26T02:45:44;102519.72;;;4.69;100.00
22550;BME280;11441;57.164;-2.120;2023-02-26T02:48:20;102510.16;;;4.62;100.00
22550;BME280;11441;57.164;-2.120;2023-02-26T02:50:55;102514.53;;;4.68;100.00
22550;BME280;11441;57.164;-2.120;2023-02-26T02:53:31;102518.63;;;4.65;100.00
22550;BME280;11441;57.164;-2.120;2023-02-26T02:56:09;102525.19;;;4.75;100.00
22550;BME280;11441;57.164;-2.120;2023-02-26T02:58:42;102529.56;;;4.65;100.00
22550;BME280;11441;57.164;-2.120;2023-02-26T03:01:13;102530.66;;;4.75;100.00
22550;BME280;11441;57.164;-2.120;2023-02-26T03:03:54;102532.31;;;4.76;100.00
22550;BME280;11441;57.164;-2.120;2023-02-26T03:06:22;102538.56;;;4.76;100.00
22550;BME280;11441;57.164;-2.120;2023-02-26T03:08:51;102546.50;;;4.83;100.00
22550;BME280;11441;57.164;-2.120;2023-02-26T03:11:19;102537.19;;;4.79;100.00
22550;BME280;11441;57.164;-2.120;2023-02-26T03:13:48;102537.75;;;4.76;100.00
22550;BME280;11441;57.164;-2.120;2023-02-26T03:16:33;102539.66;;;4.75;100.00
22550;BME280;11441;57.164;-2.120;2023-02-26T03:19:21;102534.44;;;4.68;100.00
22550;BME280;11441;57.164;-2.120;2023-02-26T03:22:11;102536.13;;;4.80;100.00
22550;BME280;11441;57.164;-2.120;2023-02-26T03:27:48;102539.94;;;4.79;100.00
22550;BME280;11441;57.164;-2.120;2023-02-26T03:30:36;102536.09;;;4.75;100.00
22550;BME280;11441;57.164;-2.120;2023-02-26T03:33:46;102539.94;;;4.79;100.00
22550;BME280;11441;57.164;-2.120;2023-02-26T03:36:20;102548.13;;;4.79;100.00
22550;BME280;11441;57.164;-2.120;2023-02-26T03:42:05;102550.03;;;4.73;100.00
22550;BME280;11441;57.164;-2.120;2023-02-26T03:44:51;102553.56;;;4.73;100.00
22550;BME280;11441;57.164;-2.120;2023-02-26T03:47:21;102557.13;;;4.69;100.00
22550;BME280;11441;57.164;-2.120;2023-02-26T03:50:04;102543.19;;;4.65;100.00
22550;BME280;11441;57.164;-2.120;2023-02-26T03:52:44;102548.13;;;4.63;100.00
22550;BME280;11441;57.164;-2.120;2023-02-26T03:55:41;102555.47;;;4.73;100.00
22550;BME280;11441;57.164;-2.120;2023-02-26T03:58:29;102553.84;;;4.67;100.00
22550;BME280;11441;57.164;-2.120;2023-02-26T04:01:23;102558.47;;;4.66;100.00
22550;BME280;11441;57.164;-2.120;2023-02-26T04:03:57;102561.72;;;4.53;100.00
22550;BME280;11441;57.164;-2.120;2023-02-26T04:06:26;102556.84;;;4.60;100.00
22550;BME280;11441;57.164;-2.120;2023-02-26T04:08:55;102559.53;;;4.55;100.00
22550;BME280;11441;57.164;-2.120;2023-02-26T04:11:23;102569.94;;;4.63;100.00
22550;BME280;11441;57.164;-2.120;2023-02-26T04:13:51;102578.44;;;4.72;100.00
22550;BME280;11441;57.164;-2.120;2023-02-26T04:16:18;102577.56;;;4.66;100.00
22550;BME280;11441;57.164;-2.120;2023-02-26T04:18:45;102577.06;;;4.75;100.00
22550;BME280;11441;57.164;-2.120;2023-02-26T04:21:13;102564.50;;;4.63;100.00
22550;BME280;11441;57.164;-2.120;2023-02-26T04:23:42;102568.81;;;4.54;100.00
22550;BME280;11441;57.164;-2.120;2023-02-26T04:26:09;102571.84;;;4.63;100.00
22550;BME280;11441;57.164;-2.120;2023-02-26T04:28:39;102583.00;;;4.61;100.00
22550;BME280;11441;57.164;-2.120;2023-02-26T04:31:06;102595.03;;;4.55;100.00
22550;BME280;11441;57.164;-2.120;2023-02-26T04:33:35;102592.59;;;4.64;100.00
22550;BME280;11441;57.164;-2.120;2023-02-26T04:36:02;102582.72;;;4.52;100.00
22550;BME280;11441;57.164;-2.120;2023-02-26T04:38:30;102595.59;;;4.62;100.00
22550;BME280;11441;57.164;-2.120;2023-02-26T04:40:57;102594.75;;;4.57;100.00
22550;BME280;11441;57.164;-2.120;2023-02-26T04:43:24;102609.78;;;4.64;100.00
22550;BME280;11441;57.164;-2.120;2023-02-26T04:46:05;102613.06;;;4.66;100.00
22550;BME280;11441;57.164;-2.120;2023-02-26T04:48:34;102613.63;;;4.63;100.00
22550;BME280;11441;57.164;-2.120;2023-02-26T04:51:01;102610.88;;;4.63;100.00
22550;BME280;11441;57.164;-2.120;2023-02-26T04:53:29;102607.84;;;4.60;100.00
22550;BME280;11441;57.164;-2.120;2023-02-26T04:55:55;102609.75;;;4.59;100.00
22550;BME280;11441;57.164;-2.120;2023-02-26T04:58:22;102602.94;;;4.57;100.00
22550;BME280;11441;57.164;-2.120;2023-02-26T05:00:50;102614.72;;;4.67;100.00
22550;BME280;11441;57.164;-2.120;2023-02-26T05:03:17;102615.00;;;4.71;100.00
22550;BME280;11441;57.164;-2.120;2023-02-26T05:05:44;102615.50;;;4.58;100.00
22550;BME280;11441;57.164;-2.120;2023-02-26T05:08:12;102618.50;;;4.61;100.00
22550;BME280;11441;57.164;-2.120;2023-02-26T05:10:57;102617.41;;;4.62;100.00
22550;BME280;11441;57.164;-2.120;2023-02-26T05:13:24;102610.84;;;4.48;100.00
22550;BME280;11441;57.164;-2.120;2023-02-26T05:15:53;102619.84;;;4.53;100.00
22550;BME280;11441;57.164;-2.120;2023-02-26T05:18:21;102628.31;;;4.57;100.00
22550;BME280;11441;57.164;-2.120;2023-02-26T05:20:53;102634.59;;;4.58;100.00
22550;BME280;11441;57.164;-2.120;2023-02-26T05:23:21;102627.72;;;4.45;100.00
22550;BME280;11441;57.164;-2.120;2023-02-26T05:25:48;102626.94;;;4.49;100.00
22550;BME280;11441;57.164;-2.120;2023-02-26T05:28:16;102631.53;;;4.44;100.00
22550;BME280;11441;57.164;-2.120;2023-02-26T05:31:01;102624.22;;;4.49;100.00
22550;BME280;11441;57.164;-2.120;2023-02-26T05:33:28;102633.47;;;4.48;100.00
22550;BME280;11441;57.164;-2.120;2023-02-26T05:35:55;102630.97;;;4.42;100.00
22550;BME280;11441;57.164;-2.120;2023-02-26T05:38:23;102639.97;;;4.42;100.00
22550;BME280;11441;57.164;-2.120;2023-02-26T05:40:50;102637.53;;;4.41;100.00
22550;BME280;11441;57.164;-2.120;2023-02-26T05:43:16;102646.31;;;4.48;100.00
22550;BME280;11441;57.164;-2.120;2023-02-26T05:45:43;102638.94;;;4.48;100.00
22550;BME280;11441;57.164;-2.120;2023-02-26T05:48:10;102645.41;;;4.37;100.00
22550;BME280;11441;57.164;-2.120;2023-02-26T05:50:37;102646.56;;;4.46;100.00
22550;BME280;11441;57.164;-2.120;2023-02-26T05:53:04;102640.28;;;4.41;100.00
22550;BME280;11441;57.164;-2.120;2023-02-26T05:55:30;102646.84;;;4.50;100.00
22550;BME280;11441;57.164;-2.120;2023-02-26T05:57:57;102647.84;;;4.33;100.00
22550;BME280;11441;57.164;-2.120;2023-02-26T06:00:24;102653.56;;;4.27;100.00
22550;BME280;11441;57.164;-2.120;2023-02-26T06:02:51;102653.28;;;4.28;100.00
22550;BME280;11441;57.164;-2.120;2023-02-26T06:05:18;102648.69;;;4.34;100.00
22550;BME280;11441;57.164;-2.120;2023-02-26T06:07:45;102651.19;;;4.46;100.00
22550;BME280;11441;57.164;-2.120;2023-02-26T06:10:13;102644.72;;;4.62;100.00
22550;BME280;11441;57.164;-2.120;2023-02-26T06:12:40;102653.66;;;4.47;100.00
22550;BME280;11441;57.164;-2.120;2023-02-26T06:15:07;102656.13;;;4.54;100.00
22550;BME280;11441;57.164;-2.120;2023-02-26T06:17:35;102652.34;;;4.55;100.00
22550;BME280;11441;57.164;-2.120;2023-02-26T06:20:04;102658.06;;;4.53;100.00
22550;BME280;11441;57.164;-2.120;2023-02-26T06:22:31;102663.28;;;4.65;100.00
22550;BME280;11441;57.164;-2.120;2023-02-26T06:24:58;102664.91;;;4.61;100.00
22550;BME280;11441;57.164;-2.120;2023-02-26T06:27:25;102669.53;;;4.61;100.00
22550;BME280;11441;57.164;-2.120;2023-02-26T06:29:52;102670.88;;;4.48;100.00
22550;BME280;11441;57.164;-2.120;2023-02-26T06:32:19;102683.34;;;4.39;100.00
22550;BME280;11441;57.164;-2.120;2023-02-26T06:34:45;102680.97;;;4.58;100.00
22550;BME280;11441;57.164;-2.120;2023-02-26T06:37:12;102685.63;;;4.57;100.00
22550;BME280;11441;57.164;-2.120;2023-02-26T06:39:39;102684.28;;;4.65;100.00
22550;BME280;11441;57.164;-2.120;2023-02-26T06:42:06;102688.09;;;4.59;100.00
22550;BME280;11441;57.164;-2.120;2023-02-26T06:44:50;102689.72;;;4.60;100.00
22550;BME280;11441;57.164;-2.120;2023-02-26T06:47:17;102687.28;;;4.58;100.00
22550;BME280;11441;57.164;-2.120;2023-02-26T06:49:44;102689.69;;;4.49;100.00
22550;BME280;11441;57.164;-2.120;2023-02-26T06:52:11;102698.66;;;4.45;100.00
22550;BME280;11441;57.164;-2.120;2023-02-26T06:54:38;102701.66;;;4.43;100.00
22550;BME280;11441;57.164;-2.120;2023-02-26T06:57:05;102705.81;;;4.56;100.00
22550;BME280;11441;57.164;-2.120;2023-02-26T06:59:32;102711.88;;;4.63;100.00
22550;BME280;11441;57.164;-2.120;2023-02-26T07:01:59;102710.75;;;4.59;100.00
22550;BME280;11441;57.164;-2.120;2023-02-26T07:04:26;102709.63;;;4.50;100.00
22550;BME280;11441;57.164;-2.120;2023-02-26T07:06:53;102707.41;;;4.47;100.00
22550;BME280;11441;57.164;-2.120;2023-02-26T07:09:19;102700.91;;;4.53;100.00
22550;BME280;11441;57.164;-2.120;2023-02-26T07:11:46;102716.19;;;4.59;100.00
22550;BME280;11441;57.164;-2.120;2023-02-26T07:14:13;102723.09;;;4.67;100.00
22550;BME280;11441;57.164;-2.120;2023-02-26T07:16:40;102721.69;;;4.64;100.00
22550;BME280;11441;57.164;-2.120;2023-02-26T07:19:07;102721.66;;;4.59;100.00
22550;BME280;11441;57.164;-2.120;2023-02-26T07:21:34;102720.59;;;4.60;100.00
22550;BME280;11441;57.164;-2.120;2023-02-26T07:24:20;102719.00;;;4.69;100.00
22550;BME280;11441;57.164;-2.120;2023-02-26T07:26:47;102712.94;;;4.62;100.00
22550;BME280;11441;57.164;-2.120;2023-02-26T07:29:13;102716.19;;;4.59;100.00
22550;BME280;11441;57.164;-2.120;2023-02-26T07:31:40;102720.63;;;4.65;100.00
22550;BME280;11441;57.164;-2.120;2023-02-26T07:34:24;102737.28;;;4.69;100.00
22550;BME280;11441;57.164;-2.120;2023-02-26T07:37:10;102739.78;;;4.76;100.00
22550;BME280;11441;57.164;-2.120;2023-02-26T07:39:36;102739.16;;;4.68;100.00
22550;BME280;11441;57.164;-2.120;2023-02-26T07:42:03;102735.06;;;4.61;100.00
22550;BME280;11441;57.164;-2.120;2023-02-26T07:44:32;102738.31;;;4.58;100.00
22550;BME280;11441;57.164;-2.120;2023-02-26T07:47:00;102743.72;;;4.52;100.00
22550;BME280;11441;57.164;-2.120;2023-02-26T07:49:27;102742.44;;;4.60;100.00
22550;BME280;11441;57.164;-2.120;2023-02-26T07:51:54;102745.25;;;4.81;100.00
22550;BME280;11441;57.164;-2.120;2023-02-26T07:54:21;102729.94;;;4.75;100.00
22550;BME280;11441;57.164;-2.120;2023-02-26T07:56:47;102750.09;;;4.68;100.00
22550;BME280;11441;57.164;-2.120;2023-02-26T07:59:14;102748.47;;;4.67;100.00
22550;BME280;11441;57.164;-2.120;2023-02-26T08:02:00;102754.28;;;4.86;100.00
22550;BME280;11441;57.164;-2.120;2023-02-26T08:04:27;102756.44;;;4.79;100.00
22550;BME280;11441;57.164;-2.120;2023-02-26T08:06:54;102745.44;;;4.64;100.00
22550;BME280;11441;57.164;-2.120;2023-02-26T08:09:22;102765.44;;;4.80;100.00
22550;BME280;11441;57.164;-2.120;2023-02-26T08:11:49;102767.81;;;4.61;100.00
22550;BME280;11441;57.164;-2.120;2023-02-26T08:14:16;102762.97;;;4.78;100.00
22550;BME280;11441;57.164;-2.120;2023-02-26T08:16:43;102760.75;;;4.70;100.00
22550;BME280;11441;57.164;-2.120;2023-02-26T08:19:09;102762.97;;;4.78;100.00
22550;BME280;11441;57.164;-2.120;2023-02-26T08:21:36;102754.94;;;4.56;100.00
22550;BME280;11441;57.164;-2.120;2023-02-26T08:24:03;102765.97;;;4.77;100.00
22550;BME280;11441;57.164;-2.120;2023-02-26T08:26:34;102767.69;;;4.88;100.00
22550;BME280;11441;57.164;-2.120;2023-02-26T08:29:01;102766.84;;;4.87;100.00
22550;BME280;11441;57.164;-2.120;2023-02-26T08:31:28;102780.53;;;4.93;100.00
22550;BME280;11441;57.164;-2.120;2023-02-26T08:34:15;102776.72;;;4.94;100.00
22550;BME280;11441;57.164;-2.120;2023-02-26T08:36:42;102778.88;;;4.86;100.00
22550;BME280;11441;57.164;-2.120;2023-02-26T08:39:09;102787.88;;;4.87;100.00
22550;BME280;11441;57.164;-2.120;2023-02-26T08:41:36;102779.69;;;4.87;100.00
22550;BME280;11441;57.164;-2.120;2023-02-26T08:44:21;102779.16;;;4.90;100.00
22550;BME280;11441;57.164;-2.120;2023-02-26T08:46:48;102770.63;;;4.76;100.00
22550;BME280;11441;57.164;-2.120;2023-02-26T08:49:15;102781.91;;;4.95;100.00
22550;BME280;11441;57.164;-2.120;2023-02-26T08:51:42;102794.19;;;4.98;100.00
22550;BME280;11441;57.164;-2.120;2023-02-26T08:54:08;102795.84;;;4.94;100.00
22550;BME280;11441;57.164;-2.120;2023-02-26T08:56:35;102804.88;;;5.04;100.00
22550;BME280;11441;57.164;-2.120;2023-02-26T08:59:21;102799.97;;;5.06;100.00
22550;BME280;11441;57.164;-2.120;2023-02-26T09:01:48;102796.19;;;5.13;100.00
22550;BME280;11441;57.164;-2.120;2023-02-26T09:04:15;102803.00;;;5.10;100.00
22550;BME280;11441;57.164;-2.120;2023-02-26T09:06:42;102805.50;;;5.22;100.00
22550;BME280;11441;57.164;-2.120;2023-02-26T09:09:09;102800.56;;;5.19;100.00
22550;BME280;11441;57.164;-2.120;2023-02-26T09:11:36;102808.25;;;5.27;100.00
22550;BME280;11441;57.164;-2.120;2023-02-26T09:14:03;102787.50;;;5.26;100.00
22550;BME280;11441;57.164;-2.120;2023-02-26T09:16:30;102795.09;;;5.19;100.00
22550;BME280;11441;57.164;-2.120;2023-02-26T09:18:57;102794.63;;;5.32;100.00
22550;BME280;11441;57.164;-2.120;2023-02-26T09:21:41;102797.34;;;5.32;100.00
22550;BME280;11441;57.164;-2.120;2023-02-26T09:24:10;102806.97;;;5.50;100.00
22550;BME280;11441;57.164;-2.120;2023-02-26T09:26:37;102806.69;;;5.46;100.00
22550;BME280;11441;57.164;-2.120;2023-02-26T09:29:04;102805.56;;;5.37;100.00
22550;BME280;11441;57.164;-2.120;2023-02-26T09:31:30;102809.66;;;5.40;100.00
22550;BME280;11441;57.164;-2.120;2023-02-26T09:33:58;102813.81;;;5.47;100.00
22550;BME280;11441;57.164;-2.120;2023-02-26T09:36:25;102821.19;;;5.47;100.00
22550;BME280;11441;57.164;-2.120;2023-02-26T09:38:52;102818.78;;;5.61;100.00
22550;BME280;11441;57.164;-2.120;2023-02-26T09:41:43;102824.78;;;5.58;100.00
22550;BME280;11441;57.164;-2.120;2023-02-26T09:52:49;102838.50;;;5.89;100.00
22550;BME280;11441;57.164;-2.120;2023-02-26T09:55:33;102831.94;;;5.95;100.00
22550;BME280;11441;57.164;-2.120;2023-02-26T09:58:04;102836.06;;;5.92;100.00
22550;BME280;11441;57.164;-2.120;2023-02-26T10:03:50;102833.63;;;6.01;100.00
22550;BME280;11441;57.164;-2.120;2023-02-26T10:09:03;102841.00;;;6.00;100.00
22550;BME280;11441;57.164;-2.120;2023-02-26T10:11:54;102841.00;;;6.00;100.00
22550;BME280;11441;57.164;-2.120;2023-02-26T10:14:27;102844.78;;;5.79;100.00
22550;BME280;11441;57.164;-2.120;2023-02-26T10:16:59;102844.00;;;5.99;100.00
22550;BME280;11441;57.164;-2.120;2023-02-26T10:19:32;102850.63;;;6.13;100.00
22550;BME280;11441;57.164;-2.120;2023-02-26T10:22:31;102844.53;;;5.85;100.00
22550;BME280;11441;57.164;-2.120;2023-02-26T10:25:23;102841.28;;;5.99;100.00
22550;BME280;11441;57.164;-2.120;2023-02-26T10:33:06;102854.16;;;6.03;100.00
22550;BME280;11441;57.164;-2.120;2023-02-26T10:35:41;102855.50;;;6.11;100.00
22550;BME280;11441;57.164;-2.120;2023-02-26T10:38:14;102857.16;;;6.02;100.00
22550;BME280;11441;57.164;-2.120;2023-02-26T10:40:49;102865.94;;;6.35;100.00
22550;BME280;11441;57.164;-2.120;2023-02-26T10:51:52;102855.00;;;6.50;100.00
22550;BME280;11441;57.164;-2.120;2023-02-26T10:54:30;102855.81;;;6.51;100.00
22550;BME280;11441;57.164;-2.120;2023-02-26T10:56:59;102870.03;;;6.58;100.00
22550;BME280;11441;57.164;-2.120;2023-02-26T10:59:26;102868.09;;;6.74;100.00
22550;BME280;11441;57.164;-2.120;2023-02-26T11:01:54;102877.69;;;6.56;100.00
22550;BME280;11441;57.164;-2.120;2023-02-26T11:04:24;102877.97;;;6.65;100.00
22550;BME280;11441;57.164;-2.120;2023-02-26T11:06:59;102881.78;;;6.79;100.00
22550;BME280;11441;57.164;-2.120;2023-02-26T11:09:38;102884.81;;;6.77;100.00
22550;BME280;11441;57.164;-2.120;2023-02-26T11:14:39;102883.44;;;6.75;100.00
22550;BME280;11441;57.164;-2.120;2023-02-26T11:17:11;102872.50;;;6.70;100.00
22550;BME280;11441;57.164;-2.120;2023-02-26T11:19:45;102882.63;;;6.79;100.00
22550;BME280;11441;57.164;-2.120;2023-02-26T11:22:15;102864.00;;;6.76;100.00
22550;BME280;11441;57.164;-2.120;2023-02-26T11:24:47;102875.47;;;6.99;100.00
22550;BME280;11441;57.164;-2.120;2023-02-26T11:27:20;102885.03;;;7.07;100.00
22550;BME280;11441;57.164;-2.120;2023-02-26T11:30:16;102879.28;;;7.03;100.00
22550;BME280;11441;57.164;-2.120;2023-02-26T11:32:48;102879.53;;;7.12;100.00
22550;BME280;11441;57.164;-2.120;2023-02-26T11:35:17;102879.63;;;6.81;100.00
22550;BME280;11441;57.164;-2.120;2023-02-26T11:37:47;102883.13;;;6.97;100.00
22550;BME280;11441;57.164;-2.120;2023-02-26T11:42:52;102880.69;;;6.85;100.00
22550;BME280;11441;57.164;-2.120;2023-02-26T11:45:21;102890.84;;;6.85;100.00
22550;BME280;11441;57.164;-2.120;2023-02-26T11:47:57;102887.84;;;6.76;100.00
22550;BME280;11441;57.164;-2.120;2023-02-26T11:50:24;102892.72;;;6.99;100.00
22550;BME280;11441;57.164;-2.120;2023-02-26T11:52:55;102885.88;;;6.97;100.00
22550;BME280;11441;57.164;-2.120;2023-02-26T11:55:28;102887.22;;;7.10;100.00
22550;BME280;11441;57.164;-2.120;2023-02-26T11:57:56;102886.91;;;7.16;100.00
22550;BME280;11441;57.164;-2.120;2023-02-26T12:00:28;102885.53;;;7.19;100.00
22550;BME280;11441;57.164;-2.120;2023-02-26T12:03:22;102889.34;;;7.28;100.00
22550;BME280;11441;57.164;-2.120;2023-02-26T12:05:50;102887.22;;;7.10;100.00
22550;BME280;11441;57.164;-2.120;2023-02-26T12:08:48;102878.72;;;7.11;100.00
22550;BME280;11441;57.164;-2.120;2023-02-26T12:19:26;102867.50;;;7.68;100.00
22550;BME280;11441;57.164;-2.120;2023-02-26T12:22:41;102878.84;;;7.56;100.00
22550;BME280;11441;57.164;-2.120;2023-02-26T12:35:38;102878.78;;;8.11;100.00
22550;BME280;11441;57.164;-2.120;2023-02-26T12:38:42;102880.78;;;8.00;100.00
22550;BME280;11441;57.164;-2.120;2023-02-26T12:41:21;102894.09;;;7.72;100.00
22550;BME280;11441;57.164;-2.120;2023-02-26T12:43:53;102891.66;;;7.66;100.00
22550;BME280;11441;57.164;-2.120;2023-02-26T12:46:58;102901.09;;;7.94;100.00
22550;BME280;11441;57.164;-2.120;2023-02-26T12:52:33;102898.97;;;7.86;100.00
22550;BME280;11441;57.164;-2.120;2023-02-26T12:55:28;102899.50;;;7.88;100.00
22550;BME280;11441;57.164;-2.120;2023-02-26T13:08:36;102902.09;;;7.64;100.00
22550;BME280;11441;57.164;-2.120;2023-02-26T13:14:25;102890.72;;;7.91;100.00
22550;BME280;11441;57.164;-2.120;2023-02-26T13:20:09;102882.19;;;7.98;100.00
22550;BME280;11441;57.164;-2.120;2023-02-26T13:22:44;102876.03;;;8.11;100.00
22550;BME280;11441;57.164;-2.120;2023-02-26T13:28:03;102884.78;;;7.73;100.00
22550;BME280;11441;57.164;-2.120;2023-02-26T13:30:36;102890.22;;;7.84;100.00
22550;BME280;11441;57.164;-2.120;2023-02-26T13:33:16;102893.88;;;7.59;100.00
22550;BME280;11441;57.164;-2.120;2023-02-26T13:35:44;102894.41;;;7.66;100.00
22550;BME280;11441;57.164;-2.120;2023-02-26T13:46:28;102889.69;;;7.77;100.00
22550;BME280;11441;57.164;-2.120;2023-02-26T13:51:56;102888.25;;;7.89;100.00
22550;BME280;11441;57.164;-2.120;2023-02-26T13:57:07;102885.44;;;7.45;100.00
22550;BME280;11441;57.164;-2.120;2023-02-26T14:04:57;102895.19;;;7.71;100.00
22550;BME280;11441;57.164;-2.120;2023-02-26T14:07:53;102890.88;;;7.55;100.00
22550;BME280;11441;57.164;-2.120;2023-02-26T14:10:53;102895.81;;;7.58;100.00
22550;BME280;11441;57.164;-2.120;2023-02-26T14:13:39;102903.41;;;7.71;100.00
22550;BME280;11441;57.164;-2.120;2023-02-26T14:16:23;102890.28;;;7.68;100.00
22550;BME280;11441;57.164;-2.120;2023-02-26T14:24:22;102887.06;;;8.01;100.00
22550;BME280;11441;57.164;-2.120;2023-02-26T14:27:48;102890.34;;;8.03;100.00
22550;BME280;11441;57.164;-2.120;2023-02-26T14:29:57;102889.69;;;8.21;100.00
22550;BME280;11441;57.164;-2.120;2023-02-26T14:32:29;102885.63;;;8.14;100.00
22550;BME280;11441;57.164;-2.120;2023-02-26T14:35:04;102884.63;;;7.94;100.00
22550;BME280;11441;57.164;-2.120;2023-02-26T14:37:32;102887.25;;;8.15;100.00
22550;BME280;11441;57.164;-2.120;2023-02-26T14:40:20;102881.13;;;8.28;100.00
22550;BME280;11441;57.164;-2.120;2023-02-26T14:42:54;102880.75;;;8.05;100.00
22550;BME280;11441;57.164;-2.120;2023-02-26T14:45:38;102885.25;;;7.86;100.00
22550;BME280;11441;57.164;-2.120;2023-02-26T14:48:12;102902.41;;;7.57;100.00
22550;BME280;11441;57.164;-2.120;2023-02-26T14:53:44;102895.31;;;8.01;100.00
22550;BME280;11441;57.164;-2.120;2023-02-26T14:56:19;102902.00;;;7.84;100.00
22550;BME280;11441;57.164;-2.120;2023-02-26T15:21:20;102901.75;;;7.81;100.00
22550;BME280;11441;57.164;-2.120;2023-02-26T15:24:11;102900.41;;;7.73;100.00
22550;BME280;11441;57.164;-2.120;2023-02-26T15:26:51;102903.69;;;7.75;100.00
22550;BME280;11441;57.164;-2.120;2023-02-26T15:29:23;102896.75;;;7.93;100.00
22550;BME280;11441;57.164;-2.120;2023-02-26T15:32:04;102900.03;;;7.90;100.00
22550;BME280;11441;57.164;-2.120;2023-02-26T15:34:31;102898.50;;;7.73;100.00
22550;BME280;11441;57.164;-2.120;2023-02-26T15:36:59;102900.41;;;7.73;100.00
22550;BME280;11441;57.164;-2.120;2023-02-26T15:39:26;102905.25;;;7.91;100.00
22550;BME280;11441;57.164;-2.120;2023-02-26T15:41:54;102898.41;;;7.89;100.00
22550;BME280;11441;57.164;-2.120;2023-02-26T15:44:26;102903.09;;;7.83;100.00
22550;BME280;11441;57.164;-2.120;2023-02-26T15:47:14;102904.44;;;7.91;100.00
22550;BME280;11441;57.164;-2.120;2023-02-26T15:49:46;102903.38;;;8.26;100.00
22550;BME280;11441;57.164;-2.120;2023-02-26T15:52:17;102908.44;;;8.09;100.00
22550;BME280;11441;57.164;-2.120;2023-02-26T15:54:53;102914.81;;;7.94;100.00
22550;BME280;11441;57.164;-2.120;2023-02-26T15:57:39;102917.19;;;8.11;100.00